Time;durP1;ratioP1;P1;durP2;ratioP2;P2;SDS_P1;SDS_P2;PMS_P1;PMS_P2;Temp;Humidity;BMP_temperature;BMP_pressure;BME280_temperature;BME280_humidity;BME280_pressure;Samples;Min_cycle;Max_cycle;Signal;HPM_P1;HPM_P2
2022/11/29 00:01:09;;;;;;;18.63;6.90;;;;;;;;;;6116399;23;20154;-68
2022/11/29 00:03:36;;;;;;;17.35;6.82;;;;;;;;;;6132253;23;20088;-63
2022/11/29 00:06:05;;;;;;;15.27;6.60;;;;;;;;;;6095998;23;20021;-67
2022/11/29 00:08:32;;;;;;;17.80;7.25;;;;;;;;;;6122089;23;20029;-69
2022/11/29 00:11:02;;;;;;;18.77;7.45;;;;;;;;;;6067836;23;20036;-65
2022/11/29 00:13:29;;;;;;;21.50;6.65;;;;;;;;;;6107594;23;20029;-67
2022/11/29 00:15:56;;;;;;;20.00;7.30;;;;;;;;;;6133124;23;20017;-65
2022/11/29 00:18:22;;;;;;;17.38;7.07;;;;;;;;;;6128932;23;20021;-67
2022/11/29 00:20:49;;;;;;;19.23;7.25;;;;;;;;;;6110956;23;20060;-66
2022/11/29 00:23:17;;;;;;;16.40;6.65;;;;;;;;;;6120576;23;20025;-65
2022/11/29 00:25:43;;;;;;;18.25;6.45;;;;;;;;;;6108833;23;20040;-68
2022/11/29 00:28:10;;;;;;;19.90;6.93;;;;;;;;;;6085430;23;20033;-64
2022/11/29 00:30:36;;;;;;;20.30;6.95;;;;;;;;;;6095175;23;20036;-65
2022/11/29 00:33:03;;;;;;;16.25;6.78;;;;;;;;;;6108232;23;20033;-65
2022/11/29 00:35:29;;;;;;;24.40;8.15;;;;;;;;;;6107791;23;20048;-69
2022/11/29 00:37:56;;;;;;;19.63;6.82;;;;;;;;;;6085836;23;20029;-65
2022/11/29 00:40:24;;;;;;;22.05;7.40;;;;;;;;;;6113059;23;20021;-65
2022/11/29 00:42:51;;;;;;;19.05;6.78;;;;;;;;;;6127299;23;21391;-66
2022/11/29 00:45:17;;;;;;;17.85;7.35;;;;;;;;;;6132027;23;20084;-63
2022/11/29 00:47:44;;;;;;;15.48;7.25;;;;;;;;;;6122070;23;20047;-67
2022/11/29 00:50:11;;;;;;;14.93;6.68;;;;;;;;;;6127986;23;20021;-65
2022/11/29 00:52:37;;;;;;;19.10;7.60;;;;;;;;;;6110590;23;20030;-67
2022/11/29 00:55:06;;;;;;;15.23;6.60;;;;;;;;;;6132471;23;20108;-67
2022/11/29 00:57:34;;;;;;;17.58;7.30;;;;;;;;;;6083627;23;20029;-68
2022/11/29 01:00:01;;;;;;;19.77;6.83;;;;;;;;;;6128459;23;20036;-66
2022/11/29 01:02:28;;;;;;;14.85;6.03;;;;;;;;;;6105596;23;20268;-67
2022/11/29 01:04:57;;;;;;;23.48;8.63;;;;;;;;;;6130701;23;20085;-66
2022/11/29 01:07:24;;;;;;;19.83;7.18;;;;;;;;;;6108773;23;20025;-71
2022/11/29 01:09:50;;;;;;;21.80;7.30;;;;;;;;;;6090707;23;20037;-66
2022/11/29 01:12:17;;;;;;;17.58;7.03;;;;;;;;;;6132762;23;20061;-70
2022/11/29 01:14:44;;;;;;;17.92;6.97;;;;;;;;;;6148102;23;20095;-65
2022/11/29 01:17:11;;;;;;;17.93;6.60;;;;;;;;;;6152457;23;20025;-70
2022/11/29 01:19:37;;;;;;;20.25;7.95;;;;;;;;;;6104996;23;20188;-70
2022/11/29 01:22:04;;;;;;;23.00;7.53;;;;;;;;;;6129680;23;20114;-66
2022/11/29 01:24:30;;;;;;;20.45;7.07;;;;;;;;;;6098514;23;20025;-65
2022/11/29 01:26:57;;;;;;;19.17;6.95;;;;;;;;;;6092863;23;20033;-66
2022/11/29 01:29:23;;;;;;;17.33;6.60;;;;;;;;;;6102402;23;20120;-63
2022/11/29 01:31:51;;;;;;;16.20;6.60;;;;;;;;;;6129863;23;20030;-68
2022/11/29 01:34:18;;;;;;;14.98;6.72;;;;;;;;;;6108773;23;20045;-66
2022/11/29 01:36:44;;;;;;;19.33;6.95;;;;;;;;;;6146403;23;20030;-64
2022/11/29 01:39:10;;;;;;;17.58;7.03;;;;;;;;;;6095335;23;20037;-67
2022/11/29 01:41:37;;;;;;;17.25;6.57;;;;;;;;;;6088320;23;20029;-65
2022/11/29 01:44:04;;;;;;;19.65;8.07;;;;;;;;;;6123556;23;20031;-65
2022/11/29 01:46:33;;;;;;;18.15;6.82;;;;;;;;;;6121767;23;20459;-66
2022/11/29 01:49:02;;;;;;;19.00;6.47;;;;;;;;;;6103745;23;20052;-69
2022/11/29 01:51:29;;;;;;;16.98;6.55;;;;;;;;;;6129142;23;20029;-64
2022/11/29 01:53:56;;;;;;;16.60;6.90;;;;;;;;;;6109282;23;20090;-64
2022/11/29 01:56:24;;;;;;;17.08;6.35;;;;;;;;;;6132011;23;20025;-65
2022/11/29 01:58:51;;;;;;;17.73;6.47;;;;;;;;;;6105773;23;20120;-69
2022/11/29 02:01:17;;;;;;;16.75;6.07;;;;;;;;;;6093591;23;20342;-68
2022/11/29 02:03:44;;;;;;;17.85;6.40;;;;;;;;;;6134936;23;20091;-65
2022/11/29 02:06:12;;;;;;;16.13;6.43;;;;;;;;;;6108779;23;20029;-64
2022/11/29 02:08:39;;;;;;;20.35;7.13;;;;;;;;;;6123749;23;20045;-63
2022/11/29 02:11:15;;;;;;;15.90;6.60;;;;;;;;;;6131091;23;20041;-67
2022/11/29 02:13:47;;;;;;;15.68;6.20;;;;;;;;;;6133778;23;20025;-67
2022/11/29 02:16:20;;;;;;;15.73;6.40;;;;;;;;;;6108985;23;20077;-63
2022/11/29 02:18:51;;;;;;;17.88;6.40;;;;;;;;;;6097345;23;21919;-65
2022/11/29 02:21:31;;;;;;;16.85;6.60;;;;;;;;;;6092614;23;20034;-70
2022/11/29 02:24:17;;;;;;;17.65;6.30;;;;;;;;;;6134032;23;20086;-69
2022/11/29 02:26:55;;;;;;;19.02;7.25;;;;;;;;;;6124915;23;20025;-67
2022/11/29 02:29:37;;;;;;;18.83;6.72;;;;;;;;;;6121375;23;20026;-66
2022/11/29 02:32:22;;;;;;;23.73;7.35;;;;;;;;;;6108495;23;20029;-71
2022/11/29 02:35:03;;;;;;;14.60;5.68;;;;;;;;;;6099944;23;20108;-70
2022/11/29 02:37:38;;;;;;;17.65;6.60;;;;;;;;;;6107563;23;20036;-69
2022/11/29 02:40:14;;;;;;;18.58;7.50;;;;;;;;;;6129366;23;20033;-66
2022/11/29 02:42:49;;;;;;;19.27;7.32;;;;;;;;;;6124642;23;20021;-67
2022/11/29 02:45:24;;;;;;;19.83;6.80;;;;;;;;;;6132961;23;20029;-66
2022/11/29 02:47:55;;;;;;;18.60;6.30;;;;;;;;;;6109895;23;20028;-69
2022/11/29 02:50:31;;;;;;;20.15;7.47;;;;;;;;;;6104866;23;20030;-65
2022/11/29 02:53:01;;;;;;;16.85;6.55;;;;;;;;;;6155751;23;20108;-62
2022/11/29 02:55:33;;;;;;;18.85;7.05;;;;;;;;;;6132307;23;20032;-65
2022/11/29 02:58:02;;;;;;;18.05;6.82;;;;;;;;;;6135839;23;20080;-67
2022/11/29 03:00:30;;;;;;;17.23;6.82;;;;;;;;;;6130139;23;20104;-67
2022/11/29 03:03:01;;;;;;;20.38;6.63;;;;;;;;;;6034265;23;20076;-68
2022/11/29 03:05:34;;;;;;;19.48;7.15;;;;;;;;;;6116704;23;20025;-68
2022/11/29 03:08:06;;;;;;;17.83;6.07;;;;;;;;;;6132259;23;20029;-66
2022/11/29 03:10:38;;;;;;;17.63;6.32;;;;;;;;;;6120586;23;20080;-65
2022/11/29 03:13:08;;;;;;;20.10;6.63;;;;;;;;;;6096923;23;20025;-65
2022/11/29 03:15:50;;;;;;;19.00;6.93;;;;;;;;;;6107789;23;20033;-66
2022/11/29 03:18:28;;;;;;;16.02;6.30;;;;;;;;;;6133705;23;20057;-66
2022/11/29 03:21:03;;;;;;;16.55;6.90;;;;;;;;;;6128405;23;20025;-64
2022/11/29 03:23:33;;;;;;;18.38;6.60;;;;;;;;;;6090566;23;20024;-70
2022/11/29 03:26:01;;;;;;;20.80;7.05;;;;;;;;;;6107125;23;20026;-71
2022/11/29 03:28:30;;;;;;;18.60;6.82;;;;;;;;;;6096430;23;20028;-65
2022/11/29 03:31:00;;;;;;;19.50;7.05;;;;;;;;;;6086664;23;20025;-67
2022/11/29 03:33:30;;;;;;;16.92;6.32;;;;;;;;;;6129698;23;20038;-67
2022/11/29 03:36:02;;;;;;;16.27;6.18;;;;;;;;;;6107467;23;20145;-68
2022/11/29 03:38:32;;;;;;;16.02;6.32;;;;;;;;;;6077293;23;20365;-69
2022/11/29 03:41:04;;;;;;;18.17;6.65;;;;;;;;;;6122901;23;20079;-67
2022/11/29 03:43:33;;;;;;;19.45;6.60;;;;;;;;;;6119328;23;20029;-66
2022/11/29 03:46:01;;;;;;;15.23;6.28;;;;;;;;;;6107288;23;20030;-68
2022/11/29 03:48:31;;;;;;;15.67;6.60;;;;;;;;;;6107939;23;20081;-69
2022/11/29 03:50:59;;;;;;;19.52;7.22;;;;;;;;;;6106513;23;20092;-68
2022/11/29 03:53:26;;;;;;;;;;;;;;;;;;6082837;23;20095;-63
2022/11/29 03:55:55;;;;;;;16.30;5.68;;;;;;;;;;6108853;23;19920;-66
2022/11/29 03:58:29;;;;;;;18.38;6.85;;;;;;;;;;6130625;23;20026;-67
2022/11/29 04:01:09;;;;;;;18.08;6.93;;;;;;;;;;6100589;23;20127;-67
2022/11/29 04:04:02;;;;;;;17.50;6.45;;;;;;;;;;6124380;23;20025;-66
2022/11/29 04:06:35;;;;;;;18.65;6.60;;;;;;;;;;6065344;23;20087;-68
2022/11/29 04:09:23;;;;;;;20.10;6.50;;;;;;;;;;6098906;23;20029;-67
2022/11/29 04:12:03;;;;;;;19.65;6.35;;;;;;;;;;6133655;23;20033;-67
2022/11/29 04:14:31;;;;;;;17.40;6.38;;;;;;;;;;6119179;23;20064;-68
2022/11/29 04:17:15;;;;;;;19.95;7.60;;;;;;;;;;6098512;23;20025;-63
2022/11/29 04:19:53;;;;;;;19.55;7.18;;;;;;;;;;6133520;23;20092;-68
2022/11/29 04:22:25;;;;;;;23.95;8.00;;;;;;;;;;6131240;23;20025;-68
2022/11/29 04:25:04;;;;;;;23.58;6.78;;;;;;;;;;6079164;23;20183;-69
2022/11/29 04:27:40;;;;;;;19.65;7.15;;;;;;;;;;6107302;23;20052;-68
2022/11/29 04:30:09;;;;;;;21.00;6.70;;;;;;;;;;6109211;23;20132;-69
2022/11/29 04:32:45;;;;;;;19.88;7.45;;;;;;;;;;6105163;23;20091;-65
2022/11/29 04:35:20;;;;;;;20.58;7.65;;;;;;;;;;6086915;23;20025;-67
2022/11/29 04:37:59;;;;;;;21.25;7.50;;;;;;;;;;6132890;23;20036;-66
2022/11/29 04:40:25;;;;;;;;;;;;;;;;;;6109445;23;20080;-64
2022/11/29 04:43:00;;;;;;;20.13;6.93;;;;;;;;;;6128046;23;19927;-69
2022/11/29 04:45:39;;;;;;;20.98;7.28;;;;;;;;;;6130534;23;20037;-64
2022/11/29 04:48:05;;;;;;;;;;;;;;;;;;6095836;23;20033;-64
2022/11/29 04:50:42;;;;;;;18.65;6.05;;;;;;;;;;6108757;23;19936;-65
2022/11/29 04:53:24;;;;;;;19.98;6.47;;;;;;;;;;6082958;23;20025;-66
2022/11/29 04:55:53;;;;;;;21.95;7.05;;;;;;;;;;6106566;23;20033;-68
2022/11/29 04:58:26;;;;;;;23.75;7.65;;;;;;;;;;6131461;23;20028;-69
2022/11/29 05:00:57;;;;;;;18.08;6.70;;;;;;;;;;6130297;23;20089;-63
2022/11/29 05:03:30;;;;;;;19.77;7.75;;;;;;;;;;6106304;23;20093;-69
2022/11/29 05:06:00;;;;;;;19.48;7.40;;;;;;;;;;6133099;23;20025;-69
2022/11/29 05:08:33;;;;;;;22.23;8.20;;;;;;;;;;6133076;23;20029;-70
2022/11/29 05:11:02;;;;;;;20.58;7.30;;;;;;;;;;6124357;23;20036;-66
2022/11/29 05:13:34;;;;;;;24.33;7.65;;;;;;;;;;6103716;23;20036;-65
2022/11/29 05:16:06;;;;;;;19.05;6.97;;;;;;;;;;6120558;23;20049;-68
2022/11/29 05:18:51;;;;;;;19.33;7.03;;;;;;;;;;6108752;23;20056;-71
2022/11/29 05:21:21;;;;;;;21.08;7.05;;;;;;;;;;6115127;23;20058;-67
2022/11/29 05:23:54;;;;;;;18.60;6.55;;;;;;;;;;6093317;23;20034;-68
2022/11/29 05:26:24;;;;;;;20.08;6.70;;;;;;;;;;6107541;23;20025;-62
2022/11/29 05:28:57;;;;;;;20.30;7.57;;;;;;;;;;6106227;23;20029;-67
2022/11/29 05:31:27;;;;;;;25.42;7.57;;;;;;;;;;6108039;23;20032;-67
2022/11/29 05:34:05;;;;;;;20.60;7.43;;;;;;;;;;6130926;23;20026;-69
2022/11/29 05:36:38;;;;;;;20.35;7.20;;;;;;;;;;6108321;23;20018;-70
2022/11/29 05:39:11;;;;;;;19.90;6.95;;;;;;;;;;6100915;23;20029;-67
2022/11/29 05:41:48;;;;;;;20.17;6.97;;;;;;;;;;6120727;23;20128;-66
2022/11/29 05:44:18;;;;;;;22.85;7.82;;;;;;;;;;6131554;23;20032;-69
2022/11/29 05:46:49;;;;;;;20.58;7.30;;;;;;;;;;6139585;23;20026;-71
2022/11/29 05:49:20;;;;;;;21.60;6.72;;;;;;;;;;6125439;23;21261;-63
2022/11/29 05:51:52;;;;;;;22.65;7.45;;;;;;;;;;6114322;23;20025;-67
2022/11/29 05:54:26;;;;;;;20.98;6.60;;;;;;;;;;6107967;23;20151;-65
2022/11/29 05:56:58;;;;;;;20.77;6.53;;;;;;;;;;6105880;23;20103;-65
2022/11/29 05:59:28;;;;;;;22.45;7.80;;;;;;;;;;6083725;23;20029;-67
2022/11/29 06:01:58;;;;;;;19.15;6.70;;;;;;;;;;6085751;23;20025;-68
2022/11/29 06:04:29;;;;;;;22.27;7.38;;;;;;;;;;6091300;23;20025;-67
2022/11/29 06:07:00;;;;;;;26.75;7.38;;;;;;;;;;6075616;23;20021;-68
2022/11/29 06:09:28;;;;;;;18.05;6.45;;;;;;;;;;6110602;23;20025;-68
2022/11/29 06:11:56;;;;;;;21.20;7.03;;;;;;;;;;6084885;23;20029;-69
2022/11/29 06:14:35;;;;;;;20.73;6.93;;;;;;;;;;6081843;23;20017;-65
2022/11/29 06:17:10;;;;;;;21.50;6.68;;;;;;;;;;6080147;23;20127;-69
2022/11/29 06:19:43;;;;;;;21.52;6.95;;;;;;;;;;6133313;23;20021;-64
2022/11/29 06:22:24;;;;;;;19.85;6.43;;;;;;;;;;6108769;23;20029;-67
2022/11/29 06:24:57;;;;;;;18.08;6.10;;;;;;;;;;6114465;23;20056;-62
2022/11/29 06:27:35;;;;;;;19.85;7.03;;;;;;;;;;6101919;23;20025;-66
2022/11/29 06:30:06;;;;;;;21.63;7.75;;;;;;;;;;6110072;23;20029;-69
2022/11/29 06:32:39;;;;;;;19.77;6.53;;;;;;;;;;6104864;23;20021;-67
2022/11/29 06:35:09;;;;;;;23.88;6.88;;;;;;;;;;6075470;23;20025;-67
2022/11/29 06:37:37;;;;;;;19.15;6.35;;;;;;;;;;6108404;23;20025;-66
2022/11/29 06:40:04;;;;;;;23.08;7.63;;;;;;;;;;6085118;23;20021;-62
2022/11/29 06:42:31;;;;;;;21.27;7.43;;;;;;;;;;6106314;23;20040;-66
2022/11/29 06:44:58;;;;;;;20.80;7.82;;;;;;;;;;6015615;23;20032;-65
2022/11/29 06:47:29;;;;;;;19.95;7.47;;;;;;;;;;6078177;23;20047;-62
2022/11/29 06:50:01;;;;;;;18.38;6.88;;;;;;;;;;6072103;23;20021;-64
2022/11/29 06:52:30;;;;;;;20.83;7.38;;;;;;;;;;6104115;23;20029;-64
2022/11/29 06:55:03;;;;;;;19.63;6.97;;;;;;;;;;6088738;23;20025;-63
2022/11/29 06:57:36;;;;;;;22.00;6.68;;;;;;;;;;6083389;23;20029;-64
2022/11/29 07:00:05;;;;;;;25.15;7.50;;;;;;;;;;6132894;23;20026;-69
2022/11/29 07:02:44;;;;;;;22.67;7.45;;;;;;;;;;6118814;23;20029;-66
2022/11/29 07:05:13;;;;;;;20.08;6.80;;;;;;;;;;6129093;23;20240;-65
2022/11/29 07:07:41;;;;;;;22.30;7.25;;;;;;;;;;6134310;23;20035;-64
2022/11/29 07:10:13;;;;;;;22.08;7.32;;;;;;;;;;6107955;23;20026;-63
2022/11/29 07:12:40;;;;;;;21.40;7.38;;;;;;;;;;6142833;23;20021;-66
2022/11/29 07:15:09;;;;;;;21.27;7.05;;;;;;;;;;6082916;23;20120;-66
2022/11/29 07:17:43;;;;;;;20.85;7.43;;;;;;;;;;6118322;23;20089;-63
2022/11/29 07:20:15;;;;;;;22.67;7.30;;;;;;;;;;6104918;23;20032;-61
2022/11/29 07:22:56;;;;;;;20.27;7.20;;;;;;;;;;6095778;23;20032;-66
2022/11/29 07:25:26;;;;;;;20.00;6.78;;;;;;;;;;6115338;23;20029;-67
2022/11/29 07:27:55;;;;;;;19.27;6.70;;;;;;;;;;6158460;23;20021;-68
2022/11/29 07:30:27;;;;;;;25.55;7.47;;;;;;;;;;6109761;23;20032;-66
2022/11/29 07:33:01;;;;;;;22.98;7.30;;;;;;;;;;6103048;23;20041;-65
2022/11/29 07:35:32;;;;;;;20.55;6.57;;;;;;;;;;6130204;23;20033;-65
2022/11/29 07:38:06;;;;;;;24.88;8.07;;;;;;;;;;6107937;23;20032;-68
2022/11/29 07:40:36;;;;;;;21.92;7.28;;;;;;;;;;6133294;23;20036;-65
2022/11/29 07:43:08;;;;;;;19.40;6.75;;;;;;;;;;6098970;23;20029;-66
2022/11/29 07:45:35;;;;;;;19.42;6.50;;;;;;;;;;6108201;23;20025;-64
2022/11/29 07:48:04;;;;;;;20.48;7.07;;;;;;;;;;6109424;23;20076;-66
2022/11/29 07:50:30;;;;;;;19.83;6.78;;;;;;;;;;6133302;23;20546;-67
2022/11/29 07:52:58;;;;;;;22.83;6.68;;;;;;;;;;6131519;23;20035;-65
2022/11/29 07:55:26;;;;;;;21.17;6.43;;;;;;;;;;6093139;23;20029;-67
2022/11/29 07:57:53;;;;;;;20.83;7.13;;;;;;;;;;6156564;23;20041;-69
2022/11/29 08:00:21;;;;;;;22.60;6.85;;;;;;;;;;6108309;23;20033;-66
2022/11/29 08:02:48;;;;;;;22.98;7.25;;;;;;;;;;6090953;23;20045;-68
2022/11/29 08:05:17;;;;;;;18.17;6.85;;;;;;;;;;6085077;23;20603;-66
2022/11/29 08:07:45;;;;;;;19.02;6.70;;;;;;;;;;6107195;23;20025;-64
2022/11/29 08:10:12;;;;;;;20.35;6.45;;;;;;;;;;6096816;23;20140;-65
2022/11/29 08:12:42;;;;;;;21.00;6.97;;;;;;;;;;6129596;23;20022;-65
2022/11/29 08:15:09;;;;;;;18.92;6.35;;;;;;;;;;6097025;23;20028;-64
2022/11/29 08:17:41;;;;;;;22.38;6.72;;;;;;;;;;6109728;23;20037;-65
2022/11/29 08:20:10;;;;;;;19.48;6.53;;;;;;;;;;6109567;23;20040;-65
2022/11/29 08:22:38;;;;;;;19.27;6.43;;;;;;;;;;6115898;23;20076;-63
2022/11/29 08:25:06;;;;;;;20.43;6.03;;;;;;;;;;6048904;23;20035;-65
2022/11/29 08:27:33;;;;;;;23.27;7.00;;;;;;;;;;6098924;23;20284;-65
2022/11/29 08:29:59;;;;;;;19.70;6.82;;;;;;;;;;6131709;23;20053;-64
2022/11/29 08:32:28;;;;;;;18.63;6.10;;;;;;;;;;6107060;23;20029;-67
2022/11/29 08:34:55;;;;;;;18.92;6.28;;;;;;;;;;6059484;23;20035;-66
2022/11/29 08:37:21;;;;;;;19.40;6.75;;;;;;;;;;6101165;23;20025;-67
2022/11/29 08:39:49;;;;;;;19.25;6.93;;;;;;;;;;6112280;23;20029;-66
2022/11/29 08:42:15;;;;;;;25.43;7.57;;;;;;;;;;6108168;23;20076;-66
2022/11/29 08:44:42;;;;;;;19.60;6.88;;;;;;;;;;6126786;23;20021;-67
2022/11/29 08:50:02;;;;;;;23.10;6.93;;;;;;;;;;6134433;23;20022;-70
2022/11/29 08:55:16;;;;;;;20.20;6.53;;;;;;;;;;6095089;23;20143;-69
2022/11/29 08:57:43;;;;;;;25.73;7.07;;;;;;;;;;6120410;23;20033;-65
2022/11/29 09:00:10;;;;;;;21.10;6.75;;;;;;;;;;6106224;23;20031;-64
2022/11/29 09:02:37;;;;;;;20.00;6.20;;;;;;;;;;6120635;23;20025;-68
2022/11/29 09:05:04;;;;;;;17.27;5.22;;;;;;;;;;6083733;23;20021;-63
2022/11/29 09:07:33;;;;;;;16.90;6.00;;;;;;;;;;6143704;23;20128;-66
2022/11/29 09:10:03;;;;;;;17.55;5.80;;;;;;;;;;6145752;23;20029;-68
2022/11/29 09:12:32;;;;;;;16.95;5.72;;;;;;;;;;6107979;23;20025;-64
2022/11/29 09:14:58;;;;;;;17.58;6.10;;;;;;;;;;6065498;23;20059;-67
2022/11/29 09:17:25;;;;;;;21.13;6.15;;;;;;;;;;6132533;23;20053;-68
2022/11/29 09:19:51;;;;;;;16.63;5.72;;;;;;;;;;6080142;23;20036;-70
2022/11/29 09:22:18;;;;;;;17.98;5.78;;;;;;;;;;6081930;23;20029;-66
2022/11/29 09:24:45;;;;;;;20.80;5.65;;;;;;;;;;6035788;23;20026;-63
2022/11/29 09:27:12;;;;;;;19.15;6.07;;;;;;;;;;6099339;23;20034;-65
2022/11/29 09:29:40;;;;;;;19.05;6.00;;;;;;;;;;6104689;23;20032;-69
2022/11/29 09:32:07;;;;;;;17.27;5.68;;;;;;;;;;6133668;23;20021;-67
2022/11/29 09:34:33;;;;;;;16.45;5.60;;;;;;;;;;6102157;23;20025;-66
2022/11/29 09:37:00;;;;;;;20.05;6.57;;;;;;;;;;6087155;23;20021;-68
2022/11/29 09:39:26;;;;;;;20.40;5.70;;;;;;;;;;6133831;23;20033;-66
2022/11/29 09:41:58;;;;;;;18.88;6.20;;;;;;;;;;6136236;23;20091;-67
2022/11/29 09:44:32;;;;;;;16.13;5.55;;;;;;;;;;6087715;23;20036;-67
2022/11/29 09:47:05;;;;;;;15.70;5.22;;;;;;;;;;6099599;23;20025;-64
2022/11/29 09:49:48;;;;;;;14.27;5.10;;;;;;;;;;6133782;23;20030;-65
2022/11/29 09:52:18;;;;;;;15.88;4.97;;;;;;;;;;6132517;23;20035;-66
2022/11/29 09:54:52;;;;;;;16.85;5.22;;;;;;;;;;6128815;23;20026;-64
2022/11/29 09:57:20;;;;;;;15.32;5.28;;;;;;;;;;6072826;23;20025;-68
2022/11/29 09:59:47;;;;;;;16.57;5.53;;;;;;;;;;6098749;23;20115;-68
2022/11/29 10:02:17;;;;;;;17.08;5.90;;;;;;;;;;6095974;23;20273;-67
2022/11/29 10:04:47;;;;;;;14.88;5.70;;;;;;;;;;6089936;23;20031;-67
2022/11/29 10:07:17;;;;;;;15.85;5.38;;;;;;;;;;6122045;23;20021;-68
2022/11/29 10:09:44;;;;;;;16.42;5.60;;;;;;;;;;6134036;23;20029;-65
2022/11/29 10:12:14;;;;;;;14.93;5.45;;;;;;;;;;6119514;23;20025;-66
2022/11/29 10:14:43;;;;;;;17.10;5.32;;;;;;;;;;6096912;23;20176;-65
2022/11/29 10:17:13;;;;;;;14.02;5.00;;;;;;;;;;6115470;23;20029;-65
2022/11/29 10:19:43;;;;;;;15.05;4.72;;;;;;;;;;6111801;23;20037;-64
2022/11/29 10:22:15;;;;;;;15.90;5.13;;;;;;;;;;6081586;23;20085;-65
2022/11/29 10:24:43;;;;;;;13.75;4.50;;;;;;;;;;6108365;23;20030;-67
2022/11/29 10:27:13;;;;;;;16.95;5.35;;;;;;;;;;6129016;23;20084;-64
2022/11/29 10:29:41;;;;;;;17.33;4.72;;;;;;;;;;6109811;23;20029;-68
2022/11/29 10:32:11;;;;;;;16.83;5.72;;;;;;;;;;6110483;23;20055;-62
2022/11/29 10:34:38;;;;;;;16.00;5.05;;;;;;;;;;6081932;23;20025;-64
2022/11/29 10:37:10;;;;;;;14.05;5.07;;;;;;;;;;6067218;23;20036;-65
2022/11/29 10:39:41;;;;;;;13.98;4.72;;;;;;;;;;6134413;23;20037;-65
2022/11/29 10:42:47;;;;;;;15.00;4.80;;;;;;;;;;6108650;23;20049;-70
2022/11/29 10:45:00;;;;;;;14.63;4.88;;;;;;;;;;6089384;23;20021;-67
2022/11/29 10:47:27;;;;;;;14.85;4.97;;;;;;;;;;6108350;23;20084;-64
2022/11/29 10:49:54;;;;;;;20.05;5.53;;;;;;;;;;6099041;23;20096;-65
2022/11/29 10:52:22;;;;;;;17.30;4.75;;;;;;;;;;6131508;23;20083;-66
2022/11/29 10:54:51;;;;;;;16.95;5.18;;;;;;;;;;6085328;23;20108;-65
2022/11/29 10:57:19;;;;;;;19.65;5.43;;;;;;;;;;6074702;23;20088;-65
2022/11/29 10:59:58;;;;;;;14.23;4.68;;;;;;;;;;6106726;23;20028;-62
2022/11/29 11:02:26;;;;;;;14.38;4.65;;;;;;;;;;6092209;23;20053;-67
2022/11/29 11:04:53;;;;;;;15.18;4.88;;;;;;;;;;6122478;23;20109;-64
2022/11/29 11:07:25;;;;;;;15.50;4.88;;;;;;;;;;6127521;23;20072;-69
2022/11/29 11:09:54;;;;;;;14.02;4.22;;;;;;;;;;6133226;23;20025;-66
2022/11/29 11:12:23;;;;;;;17.70;5.22;;;;;;;;;;6125452;23;20034;-63
2022/11/29 11:14:50;;;;;;;17.60;5.72;;;;;;;;;;6130598;23;20025;-66
2022/11/29 11:17:21;;;;;;;13.30;4.75;;;;;;;;;;6125059;23;20217;-67
2022/11/29 11:19:54;;;;;;;15.40;5.00;;;;;;;;;;6109060;23;20025;-69
2022/11/29 11:22:22;;;;;;;15.95;4.72;;;;;;;;;;6134111;23;20026;-69
2022/11/29 11:24:52;;;;;;;;;;;;;;;;;;6072856;23;20079;-65
2022/11/29 11:27:27;;;;;;;11.60;4.18;;;;;;;;;;6129703;23;19931;-65
2022/11/29 11:29:54;;;;;;;14.35;5.03;;;;;;;;;;6136885;23;20044;-70
2022/11/29 11:32:20;;;;;;;17.25;5.35;;;;;;;;;;6132957;23;20045;-68
2022/11/29 11:34:54;;;;;;;14.05;4.82;;;;;;;;;;6089881;23;20029;-68
2022/11/29 11:37:24;;;;;;;15.98;4.80;;;;;;;;;;6105777;23;20141;-67
2022/11/29 11:39:51;;;;;;;14.18;4.78;;;;;;;;;;6106323;23;20080;-65
2022/11/29 11:42:37;;;;;;;15.55;5.45;;;;;;;;;;6112026;23;20036;-67
2022/11/29 11:45:09;;;;;;;16.20;5.10;;;;;;;;;;6062076;23;20050;-69
2022/11/29 11:47:41;;;;;;;18.30;5.18;;;;;;;;;;6119401;23;20031;-66
2022/11/29 11:50:11;;;;;;;16.27;5.13;;;;;;;;;;6097463;23;20028;-70
2022/11/29 11:52:43;;;;;;;16.88;5.03;;;;;;;;;;6094554;23;20969;-69
2022/11/29 11:55:23;;;;;;;15.15;5.00;;;;;;;;;;6037537;23;20021;-68
2022/11/29 11:57:58;;;;;;;14.70;4.47;;;;;;;;;;6102169;23;20033;-66
2022/11/29 12:00:37;;;;;;;16.13;4.95;;;;;;;;;;6134787;23;20029;-64
2022/11/29 12:03:06;;;;;;;14.82;4.75;;;;;;;;;;6125597;23;20025;-65
2022/11/29 12:05:35;;;;;;;15.45;5.03;;;;;;;;;;6116498;23;20049;-68
2022/11/29 12:08:04;;;;;;;15.52;5.28;;;;;;;;;;6100894;23;20036;-65
2022/11/29 12:10:33;;;;;;;;;;;;;;;;;;6133763;23;20021;-63
2022/11/29 12:13:01;;;;;;;14.52;4.05;;;;;;;;;;6112251;23;19999;-64
2022/11/29 12:15:30;;;;;;;14.23;4.65;;;;;;;;;;6091651;23;20029;-67
2022/11/29 12:18:02;;;;;;;17.13;5.65;;;;;;;;;;6107514;23;20021;-67
2022/11/29 12:20:30;;;;;;;16.90;5.38;;;;;;;;;;6133235;23;20048;-67
2022/11/29 12:23:06;;;;;;;14.20;4.20;;;;;;;;;;6127328;23;20029;-65
2022/11/29 12:25:34;;;;;;;12.23;4.35;;;;;;;;;;6132068;23;20061;-64
2022/11/29 12:28:01;;;;;;;15.18;5.53;;;;;;;;;;6093417;23;20165;-66
2022/11/29 12:30:27;;;;;;;14.80;4.45;;;;;;;;;;6109117;23;20033;-65
2022/11/29 12:33:03;;;;;;;11.20;4.38;;;;;;;;;;6128904;23;20025;-66
2022/11/29 12:35:40;;;;;;;16.20;5.70;;;;;;;;;;6155169;23;20021;-68
2022/11/29 12:38:11;;;;;;;15.10;4.90;;;;;;;;;;6094622;23;20022;-71
2022/11/29 12:40:43;;;;;;;15.02;5.35;;;;;;;;;;6095817;23;20026;-70
2022/11/29 12:43:16;;;;;;;20.55;4.88;;;;;;;;;;6098608;23;20036;-70
2022/11/29 12:45:48;;;;;;;15.68;4.97;;;;;;;;;;6120794;23;20119;-66
2022/11/29 12:48:22;;;;;;;15.05;4.97;;;;;;;;;;6080783;23;20025;-65
2022/11/29 12:50:53;;;;;;;11.63;4.03;;;;;;;;;;6118241;23;20028;-63
2022/11/29 12:53:29;;;;;;;12.38;4.68;;;;;;;;;;6083247;23;20029;-69
2022/11/29 12:56:01;;;;;;;15.85;5.18;;;;;;;;;;6127946;23;20112;-68
2022/11/29 12:58:33;;;;;;;16.38;5.32;;;;;;;;;;6131406;23;20045;-67
2022/11/29 13:01:03;;;;;;;13.18;4.82;;;;;;;;;;6088768;23;20025;-65
2022/11/29 13:03:32;;;;;;;12.50;4.38;;;;;;;;;;6090441;23;20060;-67
2022/11/29 13:06:06;;;;;;;15.15;5.07;;;;;;;;;;6101185;23;20025;-66
2022/11/29 13:08:48;;;;;;;12.70;4.97;;;;;;;;;;6095397;23;20033;-66
2022/11/29 13:11:19;;;;;;;15.90;4.85;;;;;;;;;;6126064;23;20121;-68
2022/11/29 13:13:47;;;;;;;16.67;5.20;;;;;;;;;;6097211;23;20152;-69
2022/11/29 13:16:23;;;;;;;13.90;5.05;;;;;;;;;;6133271;23;20029;-67
2022/11/29 13:18:55;;;;;;;14.65;5.10;;;;;;;;;;6134696;23;20096;-66
2022/11/29 13:21:27;;;;;;;14.93;5.07;;;;;;;;;;6087292;23;20025;-68
2022/11/29 13:23:58;;;;;;;19.52;5.10;;;;;;;;;;6109169;23;20100;-68
2022/11/29 13:26:26;;;;;;;12.95;4.38;;;;;;;;;;6141332;23;20020;-64
2022/11/29 13:28:53;;;;;;;13.60;4.75;;;;;;;;;;6108668;23;20152;-64
2022/11/29 13:31:22;;;;;;;11.45;4.57;;;;;;;;;;6132225;23;20028;-67
2022/11/29 13:33:53;;;;;;;11.23;4.30;;;;;;;;;;6090267;23;20025;-69
2022/11/29 13:36:22;;;;;;;13.13;4.90;;;;;;;;;;6133288;23;20341;-63
2022/11/29 13:38:52;;;;;;;13.88;4.53;;;;;;;;;;6121362;23;20075;-66
2022/11/29 13:41:27;;;;;;;14.25;5.03;;;;;;;;;;6120630;23;21308;-67
2022/11/29 13:43:56;;;;;;;15.57;4.90;;;;;;;;;;6140607;23;20029;-68
2022/11/29 13:46:29;;;;;;;12.98;4.15;;;;;;;;;;6118441;23;20022;-67
2022/11/29 13:48:55;;;;;;;13.27;4.63;;;;;;;;;;6130133;23;20115;-65
2022/11/29 13:51:24;;;;;;;13.25;4.05;;;;;;;;;;6104517;23;20025;-66
2022/11/29 13:53:57;;;;;;;11.02;3.92;;;;;;;;;;6088587;23;20060;-67
2022/11/29 13:56:32;;;;;;;11.63;4.18;;;;;;;;;;6093979;23;20109;-65
2022/11/29 13:59:00;;;;;;;11.05;4.18;;;;;;;;;;6093747;23;20045;-64
2022/11/29 14:01:27;;;;;;;17.90;4.32;;;;;;;;;;6082954;23;20029;-66
2022/11/29 14:04:02;;;;;;;12.15;4.70;;;;;;;;;;6079489;23;20037;-67
2022/11/29 14:06:32;;;;;;;11.75;3.90;;;;;;;;;;6095246;23;20022;-65
2022/11/29 14:09:22;;;;;;;13.02;4.65;;;;;;;;;;6080242;23;20033;-66
2022/11/29 14:11:52;;;;;;;13.55;4.43;;;;;;;;;;6066647;23;20056;-64
2022/11/29 14:14:22;;;;;;;13.65;4.55;;;;;;;;;;6042700;23;20091;-66
2022/11/29 14:16:57;;;;;;;15.13;4.85;;;;;;;;;;6106155;23;20021;-67
2022/11/29 14:19:26;;;;;;;18.13;4.93;;;;;;;;;;6104522;23;20025;-68
2022/11/29 14:22:10;;;;;;;12.55;4.20;;;;;;;;;;6083242;23;20021;-68
2022/11/29 14:24:41;;;;;;;12.43;4.75;;;;;;;;;;6092037;23;20025;-64
2022/11/29 14:27:22;;;;;;;12.88;4.80;;;;;;;;;;6100654;23;20025;-65
2022/11/29 14:29:57;;;;;;;13.68;5.03;;;;;;;;;;6063432;23;20037;-67
2022/11/29 14:32:24;;;;;;;13.50;5.32;;;;;;;;;;6133922;23;20040;-66
2022/11/29 14:34:55;;;;;;;17.20;5.15;;;;;;;;;;6080078;23;20157;-66
2022/11/29 14:37:39;;;;;;;14.48;5.47;;;;;;;;;;6099271;23;20021;-66
2022/11/29 14:40:15;;;;;;;14.02;5.05;;;;;;;;;;6096580;23;20053;-65
2022/11/29 14:42:46;;;;;;;13.90;5.13;;;;;;;;;;6123244;23;20028;-67
2022/11/29 14:45:25;;;;;;;14.57;4.75;;;;;;;;;;6034089;23;20025;-69
2022/11/29 14:47:53;;;;;;;14.25;5.30;;;;;;;;;;6054965;23;20037;-65
2022/11/29 14:50:29;;;;;;;15.50;5.38;;;;;;;;;;6084487;23;20026;-69
2022/11/29 14:52:59;;;;;;;15.55;5.82;;;;;;;;;;6103482;23;20200;-68
2022/11/29 14:55:30;;;;;;;15.60;5.72;;;;;;;;;;6055820;23;20029;-67
2022/11/29 14:58:11;;;;;;;15.50;5.20;;;;;;;;;;6083586;23;20030;-67